createdAt,value
2023-03-05T06:32:15.391Z,2.75
2023-03-05T06:33:15.368Z,2.75
2023-03-05T06:34:15.357Z,2.69
2023-03-05T06:35:17.906Z,2.71
2023-03-05T06:36:17.249Z,2.89
2023-03-05T06:37:31.822Z,2.86
2023-03-05T06:38:53.461Z,2.89
2023-03-05T06:39:16.719Z,3.04
2023-03-05T06:40:18.493Z,2.93
2023-03-05T06:41:29.458Z,3.00
2023-03-05T06:43:01.817Z,3.03
2023-03-05T06:43:40.219Z,3.01
2023-03-05T06:46:14.247Z,3.08
2023-03-05T06:47:22.896Z,3.11
2023-03-05T06:48:21.840Z,3.16
2023-03-05T06:49:14.488Z,3.22
2023-03-05T06:50:23.510Z,3.19
2023-03-05T06:52:42.165Z,3.25
2023-03-05T06:53:51.296Z,3.21
2023-03-05T06:54:42.513Z,3.19
2023-03-05T06:56:03.503Z,3.25
2023-03-05T06:59:40.963Z,3.19
2023-03-05T07:01:00.928Z,3.18
2023-03-05T07:02:03.012Z,3.26
2023-03-05T07:03:14.141Z,3.23
2023-03-05T07:04:16.615Z,3.26
2023-03-05T07:04:41.872Z,3.19
2023-03-05T07:06:15.176Z,3.18
2023-03-05T07:06:42.217Z,3.29
2023-03-05T07:08:15.508Z,3.28
2023-03-05T07:08:43.405Z,3.26
2023-03-05T07:09:42.190Z,3.28
2023-03-05T07:11:15.344Z,3.29
2023-03-05T07:11:42.098Z,3.28
2023-03-05T07:13:19.864Z,3.32
2023-03-05T07:13:42.088Z,3.34
2023-03-05T07:14:41.795Z,3.36
2023-03-05T07:16:15.247Z,3.32
2023-03-05T07:16:42.339Z,3.29
2023-03-05T07:17:42.768Z,3.34
2023-03-05T07:18:44.140Z,3.29
2023-03-05T07:20:15.436Z,3.23
2023-03-05T07:20:41.757Z,3.18
2023-03-05T07:22:15.057Z,3.14
2023-03-05T07:22:41.684Z,3.14
2023-03-05T07:23:41.697Z,3.16
2023-03-05T07:25:18.076Z,3.14
